Terminal Aerodrome Forecast
Issued by NWS

Current Version | Previous Version | Text Only | Print | Product List | Glossary On
Versions: 1 2 3 4 5 6 7 8 9 10 11 12 13 14 15 16 17 18
089
FTUS45 KABQ 031124
TAFGUP
TAF
KGUP 031124Z 0312/0412 00000KT P6SM FEW120
     FM031800 02007KT P6SM SCT120
     FM040200 VRB03KT P6SM FEW120=

USA.gov is the U.S. government's official web portal to all federal, state and local government web resources and services.